Time,TemperatureF,DewpointF,PressureIn,WindDirection,WindDirectionDegrees,WindSpeedMPH,WindSpeedGustMPH,Humidity,HourlyPrecipIn,Conditions,Clouds,dailyrainin,SoftwareType,DateUTC
2013-06-09 00:07:00,69.6,41.0,29.54,WNW,300,0.0,1.0,36,0.00,,,0.00,weatherlink.com 1.10,2013-06-09 07:07:00,
2013-06-09 00:23:00,68.3,42.0,29.54,WNW,300,0.0,0.0,38,0.00,,,0.00,weatherlink.com 1.10,2013-06-09 07:23:00,
2013-06-09 00:38:00,67.2,44.0,29.54,North,355,0.0,2.0,44,0.00,,,0.00,weatherlink.com 1.10,2013-06-09 07:38:00,
2013-06-09 00:53:00,66.0,44.0,29.54,North,355,1.0,1.0,45,0.00,,,0.00,weatherlink.com 1.10,2013-06-09 07:53:00,
2013-06-09 01:08:00,65.2,45.0,29.54,NNW,340,0.0,2.0,48,0.00,,,0.00,weatherlink.com 1.10,2013-06-09 08:08:00,
2013-06-09 01:23:00,64.6,45.0,29.54,NW,318,1.0,2.0,49,0.00,,,0.00,weatherlink.com 1.10,2013-06-09 08:23:00,
2013-06-09 01:38:00,63.6,45.0,29.55,East,93,0.0,3.0,51,0.00,,,0.00,weatherlink.com 1.10,2013-06-09 08:38:00,
2013-06-09 01:53:00,62.7,44.0,29.55,East,88,0.0,1.0,50,0.00,,,0.00,weatherlink.com 1.10,2013-06-09 08:53:00,
2013-06-09 02:08:00,62.1,45.0,29.55,East,89,0.0,2.0,54,0.00,,,0.00,weatherlink.com 1.10,2013-06-09 09:08:00,
2013-06-09 02:23:00,61.4,45.0,29.55,East,89,0.0,1.0,56,0.00,,,0.00,weatherlink.com 1.10,2013-06-09 09:23:00,
2013-06-09 02:38:00,60.8,46.0,29.55,East,89,0.0,1.0,58,0.00,,,0.00,weatherlink.com 1.10,2013-06-09 09:38:00,
2013-06-09 02:53:00,60.1,46.0,29.56,East,89,0.0,1.0,60,0.00,,,0.00,weatherlink.com 1.10,2013-06-09 09:53:00,
2013-06-09 03:08:00,60.0,46.0,29.56,East,89,1.0,2.0,61,0.00,,,0.00,weatherlink.com 1.10,2013-06-09 10:08:00,
2013-06-09 03:23:00,59.6,46.0,29.56,East,89,0.0,1.0,61,0.00,,,0.00,weatherlink.com 1.10,2013-06-09 10:23:00,
2013-06-09 03:38:00,59.0,46.0,29.56,East,89,0.0,2.0,63,0.00,,,0.00,weatherlink.com 1.10,2013-06-09 10:38:00,
2013-06-09 03:53:00,58.2,46.0,29.57,East,89,0.0,1.0,65,0.00,,,0.00,weatherlink.com 1.10,2013-06-09 10:53:00,
2013-06-09 04:08:00,57.7,46.0,29.57,East,89,0.0,1.0,66,0.00,,,0.00,weatherlink.com 1.10,2013-06-09 11:08:00,
2013-06-09 04:23:00,57.2,46.0,29.58,East,89,0.0,0.0,66,0.00,,,0.00,weatherlink.com 1.10,2013-06-09 11:23:00,
2013-06-09 04:38:00,56.7,47.0,29.58,East,89,0.0,1.0,71,0.00,,,0.00,weatherlink.com 1.10,2013-06-09 11:38:00,
2013-06-09 04:53:00,56.1,47.0,29.58,East,89,0.0,0.0,71,0.00,,,0.00,weatherlink.com 1.10,2013-06-09 11:53:00,
2013-06-09 05:08:00,55.5,46.0,29.58,East,89,0.0,0.0,71,0.00,,,0.00,weatherlink.com 1.10,2013-06-09 12:08:00,
2013-06-09 05:23:00,55.3,47.0,29.59,East,89,0.0,0.0,73,0.00,,,0.00,weatherlink.com 1.10,2013-06-09 12:23:00,
2013-06-09 05:38:00,55.1,45.0,29.59,East,89,0.0,0.0,70,0.00,,,0.00,weatherlink.com 1.10,2013-06-09 12:38:00,
2013-06-09 05:54:00,57.1,48.0,29.59,East,89,0.0,0.0,72,0.00,,,0.00,weatherlink.com 1.10,2013-06-09 12:54:00,
2013-06-09 06:09:00,60.3,50.0,29.60,East,89,0.0,1.0,68,0.00,,,0.00,weatherlink.com 1.10,2013-06-09 13:09:00,
2013-06-09 06:24:00,63.4,50.0,29.60,East,89,0.0,0.0,61,0.00,,,0.00,weatherlink.com 1.10,2013-06-09 13:24:00,
2013-06-09 06:39:00,68.2,50.0,29.61,ENE,78,0.0,0.0,53,0.00,,,0.00,weatherlink.com 1.10,2013-06-09 13:39:00,
2013-06-09 06:54:00,70.1,48.0,29.60,ENE,78,0.0,1.0,46,0.00,,,0.00,weatherlink.com 1.10,2013-06-09 13:54:00,
2013-06-09 07:09:00,72.7,50.0,29.61,ENE,78,0.0,0.0,45,0.00,,,0.00,weatherlink.com 1.10,2013-06-09 14:09:00,
2013-06-09 07:24:00,76.3,50.0,29.61,ENE,78,0.0,2.0,40,0.00,,,0.00,weatherlink.com 1.10,2013-06-09 14:24:00,
2013-06-09 07:39:00,77.8,50.0,29.61,ENE,78,1.0,2.0,38,0.00,,,0.00,weatherlink.com 1.10,2013-06-09 14:39:00,
2013-06-09 07:54:00,79.6,50.0,29.61,ENE,78,1.0,1.0,36,0.00,,,0.00,weatherlink.com 1.10,2013-06-09 14:54:00,
2013-06-09 08:09:00,82.1,47.0,29.61,ENE,78,0.0,1.0,29,0.00,,,0.00,weatherlink.com 1.10,2013-06-09 15:09:00,
2013-06-09 08:24:00,85.2,46.0,29.61,ENE,78,0.0,2.0,25,0.00,,,0.00,weatherlink.com 1.10,2013-06-09 15:24:00,
2013-06-09 08:39:00,86.6,48.0,29.61,ENE,77,1.0,2.0,26,0.00,,,0.00,weatherlink.com 1.10,2013-06-09 15:39:00,
2013-06-09 08:54:00,88.1,48.0,29.61,East,92,1.0,3.0,25,0.00,,,0.00,weatherlink.com 1.10,2013-06-09 15:54:00,
2013-06-09 09:09:00,89.6,38.0,29.61,East,86,1.0,2.0,16,0.00,,,0.00,weatherlink.com 1.10,2013-06-09 16:09:00,
2013-06-09 09:24:00,89.4,39.0,29.60,NNE,30,1.0,3.0,17,0.00,,,0.00,weatherlink.com 1.10,2013-06-09 16:24:00,
2013-06-09 09:39:00,90.7,46.0,29.59,ENE,73,1.0,3.0,21,0.00,,,0.00,weatherlink.com 1.10,2013-06-09 16:39:00,
2013-06-09 09:54:00,92.7,43.0,29.59,South,181,0.0,3.0,18,0.00,,,0.00,weatherlink.com 1.10,2013-06-09 16:54:00,
2013-06-09 10:09:00,92.7,40.0,29.59,NE,35,0.0,3.0,16,0.00,,,0.00,weatherlink.com 1.10,2013-06-09 17:09:00,
2013-06-09 10:24:00,94.5,45.0,29.58,SSE,148,2.0,4.0,18,0.00,,,0.00,weatherlink.com 1.10,2013-06-09 17:24:00,
2013-06-09 10:39:00,95.1,44.0,29.58,SW,227,1.0,4.0,17,0.00,,,0.00,weatherlink.com 1.10,2013-06-09 17:39:00,
2013-06-09 10:54:00,95.9,41.0,29.57,South,169,1.0,4.0,15,0.00,,,0.00,weatherlink.com 1.10,2013-06-09 17:54:00,
2013-06-09 11:09:00,96.9,42.0,29.57,South,183,2.0,6.0,15,0.00,,,0.00,weatherlink.com 1.10,2013-06-09 18:09:00,
2013-06-09 11:24:00,97.2,46.0,29.56,ESE,115,2.0,5.0,17,0.00,,,0.00,weatherlink.com 1.10,2013-06-09 18:24:00,
2013-06-09 11:40:00,98.2,46.0,29.55,ESE,115,1.0,5.0,17,0.00,,,0.00,weatherlink.com 1.10,2013-06-09 18:40:00,
2013-06-09 11:55:00,98.9,42.0,29.55,SE,131,2.0,9.0,14,0.00,,,0.00,weatherlink.com 1.10,2013-06-09 18:55:00,
2013-06-09 12:10:00,100.1,45.0,29.54,ESE,107,2.0,5.0,15,0.00,,,0.00,weatherlink.com 1.10,2013-06-09 19:10:00,
2013-06-09 12:25:00,100.7,43.0,29.53,SE,143,3.0,8.0,14,0.00,,,0.00,weatherlink.com 1.10,2013-06-09 19:25:00,
2013-06-09 12:40:00,101.2,42.0,29.53,ESE,107,3.0,7.0,13,0.00,,,0.00,weatherlink.com 1.10,2013-06-09 19:40:00,
2013-06-09 12:55:00,101.8,48.0,29.52,SE,144,2.0,4.0,16,0.00,,,0.00,weatherlink.com 1.10,2013-06-09 19:55:00,
2013-06-09 13:10:00,102.7,47.0,29.51,ESE,103,4.0,4.0,15,0.00,,,0.00,weatherlink.com 1.10,2013-06-09 20:10:00,
2013-06-09 13:25:00,103.6,44.0,29.50,ESE,121,2.0,7.0,13,0.00,,,0.00,weatherlink.com 1.10,2013-06-09 20:25:00,
2013-06-09 13:40:00,104.1,40.0,29.50,SE,140,2.0,5.0,11,0.00,,,0.00,weatherlink.com 1.10,2013-06-09 20:40:00,
2013-06-09 13:55:00,102.0,36.0,29.49,NE,47,4.0,11.0,10,0.00,,,0.00,weatherlink.com 1.10,2013-06-09 20:55:00,
2013-06-09 14:10:00,103.2,45.0,29.48,ESE,107,2.0,11.0,14,0.00,,,0.00,weatherlink.com 1.10,2013-06-09 21:10:00,
2013-06-09 14:25:00,104.0,48.0,29.48,ESE,115,7.0,9.0,15,0.00,,,0.00,weatherlink.com 1.10,2013-06-09 21:25:00,
2013-06-09 14:40:00,103.9,46.0,29.47,ESE,113,5.0,12.0,14,0.00,,,0.00,weatherlink.com 1.10,2013-06-09 21:40:00,
2013-06-09 14:55:00,104.0,42.0,29.47,SE,130,5.0,11.0,12,0.00,,,0.00,weatherlink.com 1.10,2013-06-09 21:55:00,
2013-06-09 15:10:00,103.5,48.0,29.46,SE,128,4.0,11.0,15,0.00,,,0.00,weatherlink.com 1.10,2013-06-09 22:10:00,
2013-06-09 15:25:00,103.2,41.0,29.46,SW,221,1.0,14.0,12,0.00,,,0.00,weatherlink.com 1.10,2013-06-09 22:25:00,
2013-06-09 15:40:00,103.1,39.0,29.45,SE,139,7.0,12.0,11,0.00,,,0.00,weatherlink.com 1.10,2013-06-09 22:40:00,
2013-06-09 15:55:00,102.5,39.0,29.45,South,176,5.0,8.0,11,0.00,,,0.00,weatherlink.com 1.10,2013-06-09 22:55:00,
2013-06-09 16:10:00,103.8,35.0,29.45,SSE,148,3.0,15.0,9,0.00,,,0.00,weatherlink.com 1.10,2013-06-09 23:10:00,
2013-06-09 16:25:00,103.4,34.0,29.45,South,190,2.0,16.0,9,0.00,,,0.00,weatherlink.com 1.10,2013-06-09 23:25:00,
2013-06-09 16:40:00,103.2,37.0,29.45,ESE,123,7.0,13.0,10,0.00,,,0.00,weatherlink.com 1.10,2013-06-09 23:40:00,
2013-06-09 16:55:00,103.2,31.0,29.45,SSW,205,4.0,12.0,8,0.00,,,0.00,weatherlink.com 1.10,2013-06-09 23:55:00,
2013-06-09 17:10:00,102.4,31.0,29.45,ESE,117,3.0,7.0,8,0.00,,,0.00,weatherlink.com 1.10,2013-06-10 00:10:00,
2013-06-09 17:25:00,102.2,33.0,29.44,East,95,2.0,10.0,9,0.00,,,0.00,weatherlink.com 1.10,2013-06-10 00:25:00,
2013-06-09 17:40:00,102.0,33.0,29.44,SE,145,5.0,17.0,9,0.00,,,0.00,weatherlink.com 1.10,2013-06-10 00:40:00,
2013-06-09 17:55:00,101.0,30.0,29.44,NNW,338,4.0,8.0,8,0.00,,,0.00,weatherlink.com 1.10,2013-06-10 00:55:00,
2013-06-09 18:10:00,102.4,24.0,29.45,WNW,292,1.0,9.0,6,0.00,,,0.00,weatherlink.com 1.10,2013-06-10 01:10:00,
2013-06-09 18:25:00,102.5,27.0,29.45,SE,134,4.0,5.0,7,0.00,,,0.00,weatherlink.com 1.10,2013-06-10 01:25:00,
2013-06-09 18:40:00,100.7,35.0,29.46,ESE,110,1.0,6.0,10,0.00,,,0.00,weatherlink.com 1.10,2013-06-10 01:40:00,
2013-06-09 18:55:00,97.8,24.0,29.47,WSW,241,1.0,8.0,7,0.00,,,0.00,weatherlink.com 1.10,2013-06-10 01:55:00,
2013-06-09 19:10:00,94.2,42.0,29.47,SSE,149,1.0,3.0,16,0.00,,,0.00,weatherlink.com 1.10,2013-06-10 02:10:00,
2013-06-09 19:25:00,90.5,29.0,29.48,SW,225,1.0,6.0,11,0.00,,,0.00,weatherlink.com 1.10,2013-06-10 02:25:00,
2013-06-09 19:40:00,88.8,40.0,29.48,West,263,0.0,2.0,18,0.00,,,0.00,weatherlink.com 1.10,2013-06-10 02:40:00,
2013-06-09 19:55:00,85.2,41.0,29.48,NE,46,1.0,3.0,21,0.00,,,0.00,weatherlink.com 1.10,2013-06-10 02:55:00,
2013-06-09 20:10:00,83.1,43.0,29.49,NNE,26,0.0,1.0,24,0.00,,,0.00,weatherlink.com 1.10,2013-06-10 03:10:00,
2013-06-09 20:25:00,80.4,42.0,29.50,East,79,0.0,2.0,26,0.00,,,0.00,weatherlink.com 1.10,2013-06-10 03:25:00,
2013-06-09 20:40:00,81.7,30.0,29.50,East,93,2.0,8.0,15,0.00,,,0.00,weatherlink.com 1.10,2013-06-10 03:40:00,
2013-06-09 20:55:00,85.3,27.0,29.51,East,89,3.0,5.0,12,0.00,,,0.00,weatherlink.com 1.10,2013-06-10 03:55:00,
2013-06-09 21:10:00,84.8,29.0,29.52,East,96,3.0,6.0,13,0.00,,,0.00,weatherlink.com 1.10,2013-06-10 04:10:00,
2013-06-09 21:25:00,84.0,30.0,29.52,ENE,72,2.0,7.0,14,0.00,,,0.00,weatherlink.com 1.10,2013-06-10 04:25:00,
2013-06-09 21:40:00,84.2,26.0,29.53,ESE,112,1.0,6.0,12,0.00,,,0.00,weatherlink.com 1.10,2013-06-10 04:40:00,
2013-06-09 21:55:00,82.0,32.0,29.54,SSW,193,0.0,4.0,16,0.00,,,0.00,weatherlink.com 1.10,2013-06-10 04:55:00,
2013-06-09 22:10:00,78.8,33.0,29.54,South,188,0.0,2.0,19,0.00,,,0.00,weatherlink.com 1.10,2013-06-10 05:10:00,
2013-06-09 22:25:00,76.0,34.0,29.55,SSW,209,0.0,2.0,22,0.00,,,0.00,weatherlink.com 1.10,2013-06-10 05:25:00,
2013-06-09 22:40:00,74.0,35.0,29.55,SW,215,0.0,2.0,24,0.00,,,0.00,weatherlink.com 1.10,2013-06-10 05:40:00,
2013-06-09 22:55:00,72.6,39.0,29.55,SW,215,0.0,1.0,29,0.00,,,0.00,weatherlink.com 1.10,2013-06-10 05:55:00,
2013-06-09 23:10:00,70.5,39.0,29.55,SW,215,0.0,2.0,32,0.00,,,0.00,weatherlink.com 1.10,2013-06-10 06:10:00,
2013-06-09 23:25:00,69.3,37.0,29.55,SW,215,0.0,2.0,31,0.00,,,0.00,weatherlink.com 1.10,2013-06-10 06:25:00,
2013-06-09 23:40:00,68.5,38.0,29.55,East,86,0.0,2.0,33,0.00,,,0.00,weatherlink.com 1.10,2013-06-10 06:40:00,
2013-06-09 23:55:00,67.3,40.0,29.55,East,86,0.0,1.0,37,0.00,,,0.00,weatherlink.com 1.10,2013-06-10 06:55:00,